Time;durP1;ratioP1;P1;durP2;ratioP2;P2;SDS_P1;SDS_P2;PMS_P1;PMS_P2;Temp;Humidity;BMP_temperature;BMP_pressure;BME280_temperature;BME280_humidity;BME280_pressure;Samples;Min_cycle;Max_cycle;Signal;HPM_P1;HPM_P2
2021/10/17 00:01:53;;;;;;;14.95;10.23;;;10.10;99.90;;;;;;4973025;28;20285;-78
2021/10/17 00:04:37;;;;;;;18.13;7.65;;;10.10;99.90;;;;;;4986494;28;20112;-78
2021/10/17 00:07:21;;;;;;;32.22;16.70;;;10.10;99.90;;;;;;4988525;28;20096;-78
2021/10/17 00:10:08;;;;;;;17.95;10.60;;;10.00;99.90;;;;;;4987799;28;20041;-78
2021/10/17 00:12:54;;;;;;;9.10;6.93;;;10.00;99.90;;;;;;4991200;28;20057;-77
2021/10/17 00:15:39;;;;;;;36.78;21.17;;;10.00;99.90;;;;;;4977511;28;20041;-79
2021/10/17 00:18:24;;;;;;;32.83;17.35;;;9.90;99.90;;;;;;4994892;28;20061;-77
2021/10/17 00:21:08;;;;;;;14.35;9.10;;;10.00;99.90;;;;;;4981378;28;20053;-78
2021/10/17 00:23:52;;;;;;;13.50;7.00;;;10.00;99.90;;;;;;4996061;28;20037;-77
2021/10/17 00:26:39;;;;;;;12.18;6.82;;;10.00;99.90;;;;;;4995061;28;20041;-77
2021/10/17 00:29:26;;;;;;;46.63;26.75;;;10.00;99.90;;;;;;4995042;28;20053;-77
2021/10/17 00:32:14;;;;;;;21.95;13.05;;;10.00;99.90;;;;;;4992117;28;20088;-77
2021/10/17 00:35:00;;;;;;;10.57;7.88;;;10.00;99.90;;;;;;4994572;28;20045;-75
2021/10/17 00:37:45;;;;;;;23.05;11.35;;;10.00;99.90;;;;;;4992409;28;20442;-76
2021/10/17 00:40:29;;;;;;;79.22;45.08;;;10.00;99.90;;;;;;5006596;28;20053;-77
2021/10/17 00:43:14;;;;;;;29.63;15.70;;;10.10;99.90;;;;;;4992397;28;20037;-76
2021/10/17 00:45:58;;;;;;;24.13;8.83;;;10.00;99.90;;;;;;4992185;28;20112;-77
2021/10/17 00:48:43;;;;;;;11.77;7.53;;;10.10;99.90;;;;;;4978699;28;20065;-76
2021/10/17 00:51:27;;;;;;;11.77;6.93;;;10.10;99.90;;;;;;5007293;28;20117;-77
2021/10/17 00:54:12;;;;;;;11.45;7.72;;;10.10;99.90;;;;;;4992228;28;20056;-77
2021/10/17 00:56:57;;;;;;;18.55;11.32;;;10.10;99.90;;;;;;4994762;28;20033;-77
2021/10/17 00:59:41;;;;;;;70.47;35.58;;;10.10;99.90;;;;;;4995097;28;20037;-76
2021/10/17 01:02:25;;;;;;;33.50;16.35;;;10.10;99.90;;;;;;4996120;28;20065;-77
2021/10/17 01:05:16;;;;;;;12.57;8.48;;;10.10;99.90;;;;;;4993577;28;20064;-76
2021/10/17 01:08:01;;;;;;;11.95;7.40;;;10.20;99.80;;;;;;4977967;28;20049;-78
2021/10/17 01:10:46;;;;;;;28.13;16.35;;;10.10;99.90;;;;;;4997059;28;20038;-77
2021/10/17 01:13:30;;;;;;;28.00;17.10;;;10.10;99.90;;;;;;4999099;28;20133;-76
2021/10/17 01:16:14;;;;;;;78.07;40.53;;;10.10;99.90;;;;;;4995581;28;20041;-76
2021/10/17 01:18:58;;;;;;;48.30;23.27;;;10.10;99.90;;;;;;4995748;28;20102;-77
2021/10/17 01:21:43;;;;;;;17.77;10.52;;;10.10;99.50;;;;;;5010048;28;20065;-78
2021/10/17 01:24:27;;;;;;;18.23;7.47;;;10.10;97.40;;;;;;4994840;28;20046;-77
2021/10/17 01:27:12;;;;;;;18.13;9.38;;;10.20;95.90;;;;;;4981405;28;20057;-79
2021/10/17 01:29:58;;;;;;;17.87;11.13;;;10.30;96.20;;;;;;4996812;28;20061;-76
2021/10/17 01:32:43;;;;;;;98.63;61.40;;;10.30;97.20;;;;;;4993765;28;20052;-77
2021/10/17 01:35:27;;;;;;;26.23;10.68;;;10.30;97.90;;;;;;4997499;28;20037;-77
2021/10/17 01:38:12;;;;;;;13.77;7.38;;;10.30;97.90;;;;;;5014866;28;20045;-78
2021/10/17 01:40:56;;;;;;;178.32;114.93;;;10.30;98.40;;;;;;5001490;28;20030;-77
2021/10/17 01:43:41;;;;;;;25.33;13.25;;;10.30;99.00;;;;;;5001446;28;20061;-77
2021/10/17 01:46:25;;;;;;;12.32;5.68;;;10.20;98.30;;;;;;5001121;28;20086;-77
2021/10/17 01:49:12;;;;;;;29.02;16.73;;;10.10;98.60;;;;;;5020742;28;20037;-77
2021/10/17 01:51:56;;;;;;;19.42;8.52;;;10.00;98.80;;;;;;5036162;28;20033;-77
2021/10/17 01:54:40;;;;;;;19.43;8.73;;;10.00;99.20;;;;;;5034626;28;20102;-77
2021/10/17 01:57:25;;;;;;;13.35;8.05;;;10.00;98.90;;;;;;5033143;28;20260;-76
2021/10/17 02:00:09;;;;;;;11.83;7.67;;;9.90;98.50;;;;;;5016030;28;20049;-76
2021/10/17 02:02:54;;;;;;;13.73;7.55;;;9.90;98.80;;;;;;5019400;28;20060;-76
2021/10/17 02:05:38;;;;;;;21.17;13.37;;;9.90;99.20;;;;;;5016006;28;20052;-77
2021/10/17 02:08:23;;;;;;;16.13;7.73;;;9.80;99.20;;;;;;5011957;28;20409;-77
2021/10/17 02:11:07;;;;;;;17.00;8.45;;;9.80;99.20;;;;;;5014400;28;20355;-78
2021/10/17 02:13:52;;;;;;;15.80;7.38;;;9.80;99.20;;;;;;5002459;28;20076;-76
2021/10/17 02:16:36;;;;;;;10.93;7.20;;;9.70;98.90;;;;;;5028857;28;20040;-77
2021/10/17 02:19:20;;;;;;;11.60;6.72;;;9.70;98.90;;;;;;5012391;28;20109;-78
2021/10/17 02:22:04;;;;;;;10.82;6.18;;;9.70;98.90;;;;;;5013590;28;20041;-78
2021/10/17 02:24:48;;;;;;;12.53;6.93;;;9.70;99.00;;;;;;5015921;28;20044;-78
2021/10/17 02:27:32;;;;;;;15.23;7.50;;;9.60;99.20;;;;;;5014690;28;20288;-76
2021/10/17 02:30:17;;;;;;;13.07;6.63;;;9.60;99.70;;;;;;5013715;28;20276;-77
2021/10/17 02:33:01;;;;;;;11.35;6.45;;;9.50;99.90;;;;;;5013096;28;20076;-77
2021/10/17 02:35:46;;;;;;;8.20;6.00;;;9.50;99.90;;;;;;5016928;28;20041;-77
2021/10/17 02:38:36;;;;;;;13.65;6.78;;;9.50;99.90;;;;;;5023786;28;20061;-79
2021/10/17 02:41:20;;;;;;;9.50;6.18;;;9.40;99.90;;;;;;5023644;28;20041;-79
2021/10/17 02:44:04;;;;;;;17.07;7.30;;;9.40;99.90;;;;;;5008124;28;20033;-79
2021/10/17 02:46:48;;;;;;;10.15;5.60;;;9.40;99.90;;;;;;5008303;28;20176;-80
2021/10/17 02:49:33;;;;;;;11.57;6.55;;;9.40;99.90;;;;;;5008825;28;20551;-78
2021/10/17 02:52:17;;;;;;;12.07;6.57;;;9.40;99.90;;;;;;5007661;28;20048;-78
2021/10/17 02:55:01;;;;;;;16.67;7.47;;;9.30;99.90;;;;;;5008362;28;20052;-78
2021/10/17 02:57:45;;;;;;;13.50;6.47;;;9.30;99.90;;;;;;5023059;28;20113;-78
2021/10/17 03:00:29;;;;;;;15.65;7.50;;;9.30;99.90;;;;;;5008842;28;20044;-81
2021/10/17 03:03:13;;;;;;;12.27;5.97;;;9.20;99.90;;;;;;5006531;28;20099;-79
2021/10/17 03:05:57;;;;;;;14.38;6.78;;;9.20;99.90;;;;;;4992039;28;20040;-84
2021/10/17 03:08:41;;;;;;;12.47;6.80;;;9.20;99.90;;;;;;5007842;28;20041;-80
2021/10/17 03:11:25;;;;;;;11.32;6.97;;;9.20;99.90;;;;;;5021951;28;20359;-79
2021/10/17 03:14:10;;;;;;;9.73;6.30;;;9.20;99.90;;;;;;5021970;28;20033;-83
2021/10/17 03:16:54;;;;;;;10.25;6.43;;;9.20;99.90;;;;;;5011311;28;20037;-79
2021/10/17 03:19:38;;;;;;;11.30;6.27;;;9.10;99.90;;;;;;5032770;28;20037;-80
2021/10/17 03:22:22;;;;;;;10.68;6.18;;;9.10;99.90;;;;;;4996772;28;20095;-80
2021/10/17 03:25:07;;;;;;;9.77;6.30;;;9.10;99.90;;;;;;5021846;28;20081;-81
2021/10/17 03:27:52;;;;;;;11.63;6.75;;;9.00;99.90;;;;;;5003798;28;20092;-83
2021/10/17 03:30:37;;;;;;;12.80;6.20;;;9.00;99.90;;;;;;4974906;28;20079;-82
2021/10/17 03:33:22;;;;;;;13.63;7.88;;;9.00;99.90;;;;;;4975088;28;20069;-79
2021/10/17 03:36:07;;;;;;;12.68;7.18;;;8.80;99.90;;;;;;5004621;28;20053;-79
2021/10/17 03:38:51;;;;;;;10.43;6.18;;;8.70;99.90;;;;;;5003467;28;20045;-80
2021/10/17 03:41:35;;;;;;;10.15;6.00;;;8.70;99.90;;;;;;5006251;28;20065;-78
2021/10/17 03:44:19;;;;;;;13.47;6.93;;;8.60;99.90;;;;;;5011534;28;20110;-80
2021/10/17 03:47:03;;;;;;;8.43;5.83;;;8.60;99.90;;;;;;5011923;28;20066;-78
2021/10/17 03:49:48;;;;;;;14.07;5.72;;;8.70;99.90;;;;;;4991867;28;20065;-77
2021/10/17 03:52:33;;;;;;;14.13;6.20;;;8.70;99.90;;;;;;4989371;28;20041;-79
2021/10/17 03:55:17;;;;;;;10.65;6.25;;;8.60;99.90;;;;;;4996932;28;20086;-77
2021/10/17 03:58:02;;;;;;;15.60;6.03;;;8.50;99.90;;;;;;5000719;28;20041;-78
2021/10/17 04:00:46;;;;;;;10.35;6.70;;;8.50;99.90;;;;;;4975414;28;20521;-79
2021/10/17 04:03:31;;;;;;;11.17;6.17;;;8.40;99.90;;;;;;4986916;28;20064;-79
2021/10/17 04:06:15;;;;;;;10.75;5.97;;;8.40;99.90;;;;;;4988570;28;20497;-78
2021/10/17 04:08:59;;;;;;;11.25;6.55;;;8.40;99.90;;;;;;4988648;28;20041;-78
2021/10/17 04:11:46;;;;;;;13.10;6.30;;;8.30;99.90;;;;;;4988580;28;20038;-78
2021/10/17 04:14:32;;;;;;;12.73;6.43;;;8.30;99.90;;;;;;4974752;28;20042;-80
2021/10/17 04:17:17;;;;;;;14.80;6.35;;;8.30;99.90;;;;;;5002783;28;20097;-77
2021/10/17 04:20:01;;;;;;;12.75;6.10;;;8.30;99.90;;;;;;4987622;28;20092;-77
2021/10/17 04:22:45;;;;;;;11.85;5.53;;;8.30;99.90;;;;;;5002180;28;20029;-78
2021/10/17 04:25:29;;;;;;;9.30;5.53;;;8.30;99.90;;;;;;5003549;28;20064;-78
2021/10/17 04:28:14;;;;;;;11.50;5.88;;;8.40;99.90;;;;;;4993934;28;20084;-78
2021/10/17 04:30:58;;;;;;;11.98;6.05;;;8.40;99.90;;;;;;4993866;28;20096;-78
2021/10/17 04:33:42;;;;;;;11.10;5.82;;;8.40;99.90;;;;;;5006314;28;20569;-78
2021/10/17 04:36:26;;;;;;;16.23;5.68;;;8.40;99.90;;;;;;4994823;28;20041;-78
2021/10/17 04:39:10;;;;;;;11.40;6.63;;;8.40;99.90;;;;;;5002960;28;20045;-77
2021/10/17 04:41:55;;;;;;;13.60;6.07;;;8.30;99.90;;;;;;5016669;28;20098;-78
2021/10/17 04:44:39;;;;;;;11.70;6.35;;;8.30;99.90;;;;;;5015750;28;20041;-78
2021/10/17 04:47:24;;;;;;;10.35;6.03;;;8.30;99.90;;;;;;4999668;28;20045;-78
2021/10/17 04:50:08;;;;;;;12.90;5.45;;;8.30;99.90;;;;;;4999779;28;20112;-77
2021/10/17 04:52:53;;;;;;;9.63;6.03;;;8.30;99.90;;;;;;5002208;28;20048;-77
2021/10/17 04:55:37;;;;;;;15.50;6.05;;;8.20;99.90;;;;;;4994291;28;20538;-78
2021/10/17 04:58:21;;;;;;;7.30;5.00;;;8.20;99.90;;;;;;4993518;28;20061;-78
2021/10/17 05:01:08;;;;;;;12.82;6.10;;;8.00;99.90;;;;;;4993640;28;20348;-78
2021/10/17 05:03:53;;;;;;;13.32;6.10;;;7.80;99.90;;;;;;5025583;28;20118;-77
2021/10/17 05:06:37;;;;;;;;;;;7.70;99.90;;;;;;5012214;28;20108;-78
2021/10/17 05:09:22;;;;;;;14.43;7.35;;;7.70;99.90;;;;;;5024450;28;19987;-77
2021/10/17 05:12:06;;;;;;;12.52;7.32;;;7.70;99.90;;;;;;4996228;28;20159;-77
2021/10/17 05:14:51;;;;;;;12.70;6.88;;;7.60;99.90;;;;;;5011004;28;20049;-77
2021/10/17 05:17:36;;;;;;;15.02;6.70;;;7.60;99.90;;;;;;5021087;28;20041;-78
2021/10/17 05:20:20;;;;;;;11.50;5.65;;;7.70;99.90;;;;;;5023247;28;20052;-76
2021/10/17 05:23:11;;;;;;;9.82;5.55;;;7.70;99.90;;;;;;5024894;28;20025;-78
2021/10/17 05:25:55;;;;;;;9.75;5.53;;;7.70;99.90;;;;;;5011829;28;20049;-78
2021/10/17 05:28:40;;;;;;;10.00;6.07;;;7.80;99.90;;;;;;5005894;28;20037;-76
2021/10/17 05:31:24;;;;;;;7.28;5.38;;;7.80;99.90;;;;;;4998837;28;20129;-78
2021/10/17 05:34:08;;;;;;;14.27;6.10;;;7.80;99.90;;;;;;5026323;28;20056;-77
2021/10/17 05:36:52;;;;;;;10.13;6.23;;;7.80;99.90;;;;;;5025489;28;20448;-80
2021/10/17 05:39:38;;;;;;;10.30;6.18;;;7.80;99.90;;;;;;4984604;28;20040;-79
2021/10/17 05:42:23;;;;;;;10.15;5.90;;;7.80;99.90;;;;;;5013288;28;20520;-78
2021/10/17 05:45:10;;;;;;;15.93;7.55;;;7.80;99.90;;;;;;5011969;28;20045;-77
2021/10/17 05:47:54;;;;;;;12.77;5.82;;;7.80;99.90;;;;;;5000555;28;20040;-78
2021/10/17 05:50:38;;;;;;;10.93;6.28;;;7.80;99.90;;;;;;5012441;28;20084;-79
2021/10/17 05:53:22;;;;;;;7.37;5.30;;;7.80;99.90;;;;;;5011942;28;20037;-79
2021/10/17 05:56:06;;;;;;;17.23;6.45;;;7.90;99.90;;;;;;4997996;28;20072;-79
2021/10/17 05:58:51;;;;;;;10.47;7.43;;;7.90;99.90;;;;;;5009326;28;20107;-79
2021/10/17 06:01:35;;;;;;;13.15;8.30;;;7.90;99.90;;;;;;5012251;28;20036;-78
2021/10/17 06:04:19;;;;;;;21.27;11.48;;;7.90;99.90;;;;;;5012005;28;20117;-79
2021/10/17 06:07:04;;;;;;;25.00;14.85;;;7.90;99.90;;;;;;5011634;28;20100;-78
2021/10/17 06:09:48;;;;;;;16.33;10.60;;;8.00;99.90;;;;;;5013228;28;20144;-80
2021/10/17 06:12:32;;;;;;;12.48;8.73;;;8.10;99.90;;;;;;4998021;28;20096;-81
2021/10/17 06:15:16;;;;;;;20.77;7.68;;;8.10;99.90;;;;;;4996794;28;20563;-80
2021/10/17 06:18:01;;;;;;;12.85;7.63;;;8.10;99.90;;;;;;5012188;28;20140;-81
2021/10/17 06:20:45;;;;;;;17.35;8.57;;;8.10;99.90;;;;;;4982877;28;20103;-82
2021/10/17 06:23:29;;;;;;;13.55;6.70;;;8.10;99.90;;;;;;4994441;28;20153;-81
2021/10/17 06:26:13;;;;;;;11.50;6.95;;;8.10;99.90;;;;;;4979509;28;20124;-81
2021/10/17 06:28:57;;;;;;;12.68;6.60;;;8.20;99.90;;;;;;5009717;28;20481;-79
2021/10/17 06:31:41;;;;;;;9.88;7.15;;;8.20;99.90;;;;;;5008509;28;20048;-81
2021/10/17 06:34:26;;;;;;;11.60;6.95;;;8.30;99.90;;;;;;5008856;28;20084;-78
2021/10/17 06:37:10;;;;;;;16.35;9.63;;;8.30;99.90;;;;;;5022633;28;20045;-80
2021/10/17 06:39:55;;;;;;;23.95;11.15;;;8.30;99.90;;;;;;5000826;28;20037;-79
2021/10/17 06:42:38;;;;;;;12.77;6.97;;;8.30;99.80;;;;;;4995108;28;20520;-80
2021/10/17 06:45:23;;;;;;;13.55;7.88;;;8.30;99.90;;;;;;4977912;28;20042;-78
2021/10/17 06:48:07;;;;;;;12.87;7.10;;;8.30;99.80;;;;;;5012481;28;20037;-78
2021/10/17 06:50:52;;;;;;;10.68;6.53;;;8.30;99.90;;;;;;5001373;28;20045;-78
2021/10/17 06:53:35;;;;;;;11.88;6.43;;;8.30;99.90;;;;;;4978223;28;20049;-79
2021/10/17 06:56:20;;;;;;;14.53;7.60;;;8.30;99.90;;;;;;5005541;28;20053;-79
2021/10/17 06:59:04;;;;;;;15.02;8.82;;;8.50;99.90;;;;;;4979034;28;20114;-79
2021/10/17 07:01:49;;;;;;;15.73;9.48;;;8.60;99.90;;;;;;4978646;28;20394;-79
2021/10/17 07:04:33;;;;;;;15.32;6.97;;;8.60;99.80;;;;;;4992176;28;20068;-78
2021/10/17 07:07:17;;;;;;;9.18;6.22;;;8.60;99.40;;;;;;4977664;28;20153;-78
2021/10/17 07:10:02;;;;;;;8.77;5.90;;;8.60;99.60;;;;;;5003494;28;20100;-81
2021/10/17 07:12:47;;;;;;;;;;;8.70;99.50;;;;;;4991410;28;20041;-79
2021/10/17 07:15:31;;;;;;;13.85;6.88;;;8.70;99.70;;;;;;5004083;28;19960;-79
2021/10/17 07:18:15;;;;;;;13.45;6.40;;;8.70;99.60;;;;;;4977439;28;20058;-79
2021/10/17 07:20:59;;;;;;;11.23;6.60;;;8.50;99.90;;;;;;4989385;28;20045;-78
2021/10/17 07:23:43;;;;;;;11.73;6.50;;;8.50;99.90;;;;;;5010849;28;20105;-78
2021/10/17 07:26:27;;;;;;;12.40;6.07;;;8.50;99.90;;;;;;4994947;28;20072;-79
2021/10/17 07:29:11;;;;;;;9.48;6.30;;;8.60;99.90;;;;;;5007915;28;20054;-77
2021/10/17 07:31:55;;;;;;;11.85;6.35;;;8.50;99.90;;;;;;5011558;28;20094;-78
2021/10/17 07:34:40;;;;;;;13.48;7.70;;;8.40;99.90;;;;;;4977981;28;20040;-79
2021/10/17 07:37:24;;;;;;;11.85;6.18;;;8.40;99.90;;;;;;4979154;28;20045;-79
2021/10/17 07:40:08;;;;;;;16.90;7.17;;;8.40;99.90;;;;;;4991640;28;20093;-79
2021/10/17 07:42:53;;;;;;;11.43;7.30;;;8.30;99.90;;;;;;4989636;28;20469;-78
2021/10/17 07:45:37;;;;;;;11.38;6.50;;;8.40;99.90;;;;;;4976634;28;20037;-79
2021/10/17 07:48:21;;;;;;;12.40;7.07;;;8.40;99.90;;;;;;5006771;28;20076;-78
2021/10/17 07:51:05;;;;;;;11.85;7.10;;;8.40;99.90;;;;;;4990847;28;20045;-78
2021/10/17 07:53:51;;;;;;;12.77;7.05;;;8.50;99.90;;;;;;4983663;28;20097;-78
2021/10/17 07:56:35;;;;;;;10.07;6.72;;;8.60;99.90;;;;;;4995518;28;20065;-79
2021/10/17 07:59:19;;;;;;;19.70;7.55;;;8.70;99.90;;;;;;4997354;28;20069;-78
2021/10/17 08:02:03;;;;;;;16.88;6.80;;;8.80;99.90;;;;;;4996866;28;20044;-79
2021/10/17 08:04:48;;;;;;;13.48;6.75;;;8.90;99.90;;;;;;5006244;28;20076;-79
2021/10/17 08:07:40;;;;;;;12.48;7.32;;;8.90;99.90;;;;;;5025825;28;20404;-79
2021/10/17 08:10:24;;;;;;;10.13;6.65;;;8.80;99.90;;;;;;4995351;28;20036;-78
2021/10/17 08:13:08;;;;;;;11.70;7.43;;;8.80;99.90;;;;;;4995484;28;20041;-79
2021/10/17 08:15:52;;;;;;;13.05;8.70;;;8.90;99.90;;;;;;4995273;28;20085;-78
2021/10/17 08:18:37;;;;;;;10.82;7.55;;;9.00;99.90;;;;;;5009114;28;20512;-79
2021/10/17 08:21:21;;;;;;;14.88;8.05;;;9.10;99.90;;;;;;5009728;28;20065;-78
2021/10/17 08:24:06;;;;;;;11.45;6.95;;;9.10;99.90;;;;;;5008328;28;20048;-79
2021/10/17 08:26:50;;;;;;;13.52;7.82;;;9.20;99.90;;;;;;5023907;28;20121;-79
2021/10/17 08:29:36;;;;;;;14.00;7.63;;;9.10;99.90;;;;;;5009685;28;20052;-78
2021/10/17 08:32:20;;;;;;;12.05;7.50;;;9.20;99.90;;;;;;4993952;28;20044;-79
2021/10/17 08:35:05;;;;;;;15.35;7.47;;;9.40;99.90;;;;;;5007874;28;20145;-77
2021/10/17 08:37:49;;;;;;;;;;;9.30;99.90;;;;;;5005759;28;20037;-78
2021/10/17 08:40:39;;;;;;;14.07;7.65;;;9.30;99.90;;;;;;5009783;28;20439;-78
2021/10/17 08:43:24;;;;;;;15.13;8.10;;;9.40;99.90;;;;;;5011306;28;20161;-77
2021/10/17 08:46:12;;;;;;;15.18;6.90;;;9.60;99.90;;;;;;5028777;28;20112;-78
2021/10/17 08:48:59;;;;;;;14.00;8.55;;;9.60;99.90;;;;;;5012095;28;20056;-78
2021/10/17 08:51:44;;;;;;;15.40;7.50;;;9.50;99.90;;;;;;5008128;28;20037;-76
2021/10/17 08:54:28;;;;;;;14.55;7.93;;;9.70;99.90;;;;;;5012448;28;20398;-79
2021/10/17 08:57:12;;;;;;;14.00;6.50;;;9.80;99.60;;;;;;5027318;28;20041;-77
2021/10/17 08:59:57;;;;;;;15.75;7.28;;;9.70;99.10;;;;;;5025826;28;20053;-76
2021/10/17 09:02:45;;;;;;;12.65;7.30;;;9.80;99.30;;;;;;4983743;28;20042;-77
2021/10/17 09:05:43;;;;;;;11.85;6.43;;;9.80;99.20;;;;;;5003144;28;20165;-78
2021/10/17 09:08:30;;;;;;;10.38;6.78;;;9.80;99.30;;;;;;4993419;28;20034;-78
2021/10/17 09:11:38;;;;;;;13.88;7.97;;;9.80;99.20;;;;;;4974891;28;20126;-81
2021/10/17 09:14:25;;;;;;;12.27;6.90;;;9.90;99.00;;;;;;5003815;28;20029;-80
2021/10/17 09:17:09;;;;;;;15.02;7.63;;;9.90;98.80;;;;;;5003618;28;20065;-79
2021/10/17 09:19:59;;;;;;;13.55;7.75;;;9.80;98.90;;;;;;4988839;28;20041;-80
2021/10/17 09:22:43;;;;;;;13.32;7.10;;;9.80;98.80;;;;;;4988339;28;20057;-82
2021/10/17 09:25:35;;;;;;;13.27;7.47;;;9.80;99.10;;;;;;5002591;28;20084;-79
2021/10/17 09:28:28;;;;;;;15.93;8.05;;;9.80;99.30;;;;;;4988341;28;20093;-81
2021/10/17 09:31:18;;;;;;;15.75;8.63;;;9.90;99.40;;;;;;4974818;28;20062;-80
2021/10/17 09:34:02;;;;;;;15.23;7.28;;;9.90;99.50;;;;;;5001839;28;20056;-80
2021/10/17 09:36:46;;;;;;;11.93;6.90;;;10.00;99.30;;;;;;4994214;28;20509;-80
2021/10/17 09:39:37;;;;;;;13.38;6.75;;;10.10;99.20;;;;;;5013437;28;20044;-78
2021/10/17 09:42:22;;;;;;;11.38;6.75;;;9.90;99.10;;;;;;5004906;28;20032;-82
2021/10/17 09:45:26;;;;;;;13.02;7.75;;;10.00;99.40;;;;;;4992786;28;20041;-82
2021/10/17 09:48:27;;;;;;;12.90;6.95;;;10.00;99.00;;;;;;5021933;28;20057;-82
2021/10/17 09:51:14;;;;;;;13.68;7.22;;;10.00;99.20;;;;;;5009900;28;20071;-81
2021/10/17 09:53:59;;;;;;;13.27;7.32;;;10.10;99.10;;;;;;5012109;28;20037;-78
2021/10/17 09:56:44;;;;;;;17.27;7.65;;;10.20;98.90;;;;;;5024770;28;20037;-80
2021/10/17 09:59:28;;;;;;;12.67;7.17;;;10.20;98.90;;;;;;4994793;28;20057;-78
2021/10/17 10:02:16;;;;;;;14.30;7.32;;;10.30;98.90;;;;;;5010134;28;20049;-79
2021/10/17 10:05:00;;;;;;;14.40;7.75;;;10.30;99.10;;;;;;5024017;28;20045;-80
2021/10/17 10:07:47;;;;;;;18.40;7.32;;;10.20;99.50;;;;;;5027097;28;20045;-78
2021/10/17 10:10:32;;;;;;;14.93;7.38;;;10.20;99.20;;;;;;5020815;28;20057;-80
2021/10/17 10:13:21;;;;;;;13.13;7.30;;;10.30;99.20;;;;;;5031797;28;20044;-78
2021/10/17 10:16:06;;;;;;;13.18;6.70;;;10.30;98.80;;;;;;5018087;28;20057;-78
2021/10/17 10:19:03;;;;;;;18.20;8.48;;;10.30;99.10;;;;;;5017139;28;20180;-78
2021/10/17 10:21:49;;;;;;;16.02;7.68;;;10.30;98.90;;;;;;5015812;28;20109;-79
2021/10/17 10:24:34;;;;;;;19.15;8.50;;;10.30;98.70;;;;;;5015381;28;20064;-81
2021/10/17 10:27:19;;;;;;;;;;;10.50;98.20;;;;;;5011130;28;20110;-80
2021/10/17 10:30:29;;;;;;;15.52;7.90;;;10.70;97.60;;;;;;5012818;28;19928;-82
2021/10/17 10:33:18;;;;;;;14.27;8.85;;;10.70;97.40;;;;;;5025677;28;20040;-78
2021/10/17 10:36:10;;;;;;;18.13;9.00;;;10.70;97.80;;;;;;5012448;28;20069;-80
2021/10/17 10:38:54;;;;;;;21.30;8.55;;;10.50;97.70;;;;;;5010334;28;20109;-80
2021/10/17 10:42:01;;;;;;;12.15;7.80;;;10.60;97.80;;;;;;5013255;28;20032;-81
2021/10/17 10:44:49;;;;;;;14.40;8.18;;;10.70;97.70;;;;;;5013814;28;20543;-80
2021/10/17 10:47:36;;;;;;;13.98;8.10;;;10.80;97.40;;;;;;4998730;28;20080;-79
2021/10/17 10:50:35;;;;;;;18.55;7.72;;;10.90;97.20;;;;;;5011892;28;20085;-79
2021/10/17 10:53:54;;;;;;;13.82;8.40;;;11.00;96.60;;;;;;5027238;28;20033;-82
2021/10/17 10:56:46;;;;;;;24.00;9.95;;;10.90;96.60;;;;;;5010586;28;20394;-80
2021/10/17 11:00:06;;;;;;;14.70;7.68;;;10.90;96.60;;;;;;5027186;28;20032;-78
2021/10/17 11:03:12;;;;;;;12.70;7.30;;;11.00;96.20;;;;;;5012439;28;20037;-81
2021/10/17 11:06:05;;;;;;;;;;;11.10;96.30;;;;;;5025438;28;20044;-80
2021/10/17 11:09:23;;;;;;;15.00;7.28;;;11.30;96.30;;;;;;5023025;28;19917;-82
2021/10/17 11:12:08;;;;;;;19.08;8.63;;;11.50;95.80;;;;;;5010297;28;20033;-82
2021/10/17 11:14:59;;;;;;;;;;;11.60;95.30;;;;;;5024932;28;20496;-82
2021/10/17 11:17:52;;;;;;;13.90;7.45;;;11.60;94.80;;;;;;5010705;28;19969;-84
2021/10/17 11:20:46;;;;;;;15.98;7.78;;;11.70;94.80;;;;;;5008770;28;20049;-80
2021/10/17 11:23:33;;;;;;;10.98;6.80;;;11.80;94.50;;;;;;5010536;28;20029;-84
2021/10/17 11:26:19;;;;;;;15.75;6.60;;;12.00;93.80;;;;;;5010191;28;20036;-82
2021/10/17 11:29:07;;;;;;;14.13;7.20;;;11.90;94.20;;;;;;5011944;28;20048;-79
2021/10/17 11:31:52;;;;;;;15.60;7.72;;;11.90;94.40;;;;;;4997783;28;20040;-83
2021/10/17 11:34:36;;;;;;;16.33;8.00;;;12.10;94.50;;;;;;4997954;28;20044;-81
2021/10/17 11:37:23;;;;;;;14.50;8.73;;;12.20;94.40;;;;;;4995295;28;20088;-83
2021/10/17 11:40:10;;;;;;;15.00;8.20;;;12.20;93.90;;;;;;5008820;28;20264;-83
2021/10/17 11:43:00;;;;;;;18.35;8.43;;;12.30;94.00;;;;;;5027616;28;20055;-83
2021/10/17 11:45:47;;;;;;;15.40;7.20;;;12.20;93.80;;;;;;5011777;28;20105;-79
2021/10/17 11:48:33;;;;;;;13.00;6.60;;;12.10;93.70;;;;;;5012907;28;20029;-80
2021/10/17 11:51:18;;;;;;;10.20;7.47;;;12.20;92.60;;;;;;5022561;28;20094;-79
2021/10/17 11:54:02;;;;;;;10.70;6.65;;;12.20;92.50;;;;;;5010599;28;20041;-78
2021/10/17 11:56:56;;;;;;;11.02;6.78;;;12.10;91.80;;;;;;5024408;28;20056;-80
2021/10/17 11:59:58;;;;;;;11.10;5.95;;;12.20;91.10;;;;;;5006037;28;20076;-81
2021/10/17 12:02:42;;;;;;;11.43;6.32;;;12.20;91.60;;;;;;5006962;28;20037;-81
2021/10/17 12:05:28;;;;;;;14.60;7.00;;;12.30;91.60;;;;;;5011971;28;20041;-77
2021/10/17 12:08:26;;;;;;;15.02;6.60;;;12.40;91.30;;;;;;5026432;28;20172;-80
2021/10/17 12:11:12;;;;;;;18.35;7.05;;;12.70;90.60;;;;;;5012050;28;20121;-78
2021/10/17 12:13:59;;;;;;;15.05;6.25;;;12.70;90.50;;;;;;5010382;28;20037;-80
2021/10/17 12:16:43;;;;;;;14.05;6.80;;;12.90;90.70;;;;;;5008535;28;20028;-79
2021/10/17 12:19:28;;;;;;;15.03;7.40;;;13.10;90.50;;;;;;5006815;28;20073;-81
2021/10/17 12:22:12;;;;;;;11.63;6.85;;;13.20;90.20;;;;;;5023016;28;20053;-80
2021/10/17 12:25:00;;;;;;;11.00;6.32;;;13.20;90.20;;;;;;5024601;28;20048;-79
2021/10/17 12:27:48;;;;;;;9.80;5.75;;;13.40;90.10;;;;;;5022790;28;20084;-79
2021/10/17 12:30:35;;;;;;;11.27;5.90;;;13.60;90.20;;;;;;5005910;28;20155;-80
2021/10/17 12:33:25;;;;;;;13.73;6.70;;;13.60;90.60;;;;;;5007215;28;20040;-81
2021/10/17 12:36:21;;;;;;;13.48;6.32;;;13.20;90.70;;;;;;5026747;28;20057;-78
2021/10/17 12:39:08;;;;;;;14.20;6.20;;;13.30;90.70;;;;;;5009672;28;20072;-81
2021/10/17 12:42:00;;;;;;;11.40;6.18;;;13.10;90.50;;;;;;5021869;28;20528;-81
2021/10/17 12:44:47;;;;;;;12.63;6.07;;;13.20;88.50;;;;;;5008230;28;20041;-79
2021/10/17 12:47:39;;;;;;;15.40;6.00;;;13.20;90.00;;;;;;5007638;28;20052;-79
2021/10/17 12:50:26;;;;;;;9.20;5.40;;;13.40;88.90;;;;;;4995972;28;20057;-80
2021/10/17 12:53:14;;;;;;;10.93;5.60;;;13.30;87.50;;;;;;5030212;28;20045;-79
2021/10/17 12:55:59;;;;;;;11.45;5.30;;;13.20;88.40;;;;;;5012866;28;20056;-80
2021/10/17 12:58:43;;;;;;;12.65;6.43;;;13.40;88.90;;;;;;4992104;28;20037;-80
2021/10/17 13:01:27;;;;;;;9.57;6.07;;;13.60;88.10;;;;;;5021926;28;20092;-80
2021/10/17 13:04:13;;;;;;;13.88;6.47;;;13.60;88.30;;;;;;5023887;28;20041;-81
2021/10/17 13:07:01;;;;;;;10.18;6.93;;;13.40;89.20;;;;;;5009654;28;20092;-79
2021/10/17 13:09:51;;;;;;;8.95;5.68;;;13.50;88.40;;;;;;5022773;28;20433;-79
2021/10/17 13:12:53;;;;;;;9.27;5.38;;;13.60;88.10;;;;;;5009735;28;20505;-77
2021/10/17 13:15:37;;;;;;;12.38;5.80;;;13.60;87.70;;;;;;5027151;28;20084;-80
2021/10/17 13:18:22;;;;;;;9.63;5.18;;;13.50;88.30;;;;;;5014132;28;20547;-76
2021/10/17 13:21:06;;;;;;;11.70;5.43;;;13.50;86.70;;;;;;5014191;28;20037;-77
2021/10/17 13:23:51;;;;;;;9.07;5.70;;;13.50;88.60;;;;;;5016309;28;20101;-77
2021/10/17 13:26:36;;;;;;;8.90;5.00;;;13.30;87.20;;;;;;5016680;28;20040;-77
2021/10/17 13:29:20;;;;;;;9.65;5.07;;;13.30;88.50;;;;;;5015734;28;20064;-78
2021/10/17 13:32:04;;;;;;;11.43;5.73;;;13.30;87.90;;;;;;5011263;28;20040;-79
2021/10/17 13:34:49;;;;;;;9.95;4.88;;;13.30;87.80;;;;;;5013204;28;20272;-79
2021/10/17 13:37:33;;;;;;;11.40;4.88;;;13.30;87.90;;;;;;4999921;28;20041;-78
2021/10/17 13:40:24;;;;;;;11.65;5.03;;;13.50;87.50;;;;;;5012004;28;20064;-79
2021/10/17 13:43:08;;;;;;;9.82;4.95;;;13.60;87.30;;;;;;5010737;28;20056;-79
2021/10/17 13:45:52;;;;;;;9.23;4.43;;;13.60;87.30;;;;;;5011428;28;20048;-80
2021/10/17 13:48:37;;;;;;;12.50;5.27;;;13.40;87.90;;;;;;4996616;28;20037;-80
2021/10/17 13:51:20;;;;;;;9.02;5.15;;;13.40;87.80;;;;;;5010524;28;20044;-81
2021/10/17 13:54:05;;;;;;;10.83;5.10;;;13.40;87.70;;;;;;4998021;28;20048;-80
2021/10/17 13:56:54;;;;;;;7.40;4.97;;;13.30;87.80;;;;;;5012356;28;20097;-80
2021/10/17 13:59:38;;;;;;;7.57;4.28;;;13.20;88.70;;;;;;5027574;28;20072;-81
2021/10/17 14:02:23;;;;;;;16.95;5.55;;;13.30;88.00;;;;;;5012496;28;20040;-81
2021/10/17 14:05:10;;;;;;;9.40;5.13;;;13.50;87.60;;;;;;5026984;28;20113;-81
2021/10/17 14:07:55;;;;;;;10.38;4.97;;;13.60;88.40;;;;;;5013413;28;20045;-81
2021/10/17 14:10:39;;;;;;;10.95;4.90;;;13.50;87.60;;;;;;5017536;28;20137;-82
2021/10/17 14:13:24;;;;;;;16.98;5.90;;;13.70;88.30;;;;;;5004525;28;20161;-81
2021/10/17 14:16:10;;;;;;;9.70;5.03;;;13.90;88.00;;;;;;4999663;28;20045;-84
2021/10/17 14:18:54;;;;;;;11.35;5.72;;;14.00;88.10;;;;;;5011045;28;20561;-81
2021/10/17 14:21:41;;;;;;;8.52;4.78;;;14.10;88.40;;;;;;4999277;28;20060;-80